createdAt,value
2023-03-23T16:00:40.528Z,6.53
2023-03-23T16:03:50.090Z,5.30
2023-03-23T16:06:59.307Z,4.37
2023-03-23T16:10:04.438Z,5.97
2023-03-23T16:13:07.907Z,7.20
2023-03-23T16:16:18.341Z,4.37
2023-03-23T16:19:24.578Z,5.30
2023-03-23T16:22:28.333Z,9.03
2023-03-23T16:25:33.300Z,10.80
2023-03-23T16:28:36.956Z,3.33
2023-03-23T16:31:40.783Z,4.83
2023-03-23T16:34:44.439Z,4.33
2023-03-23T16:37:49.217Z,3.93
2023-03-23T16:40:54.260Z,3.23
2023-03-23T16:43:57.774Z,4.50
2023-03-23T16:47:01.440Z,2.93
2023-03-23T16:50:08.167Z,6.47
2023-03-23T16:53:13.315Z,4.57
2023-03-23T16:56:18.299Z,3.77
2023-03-23T16:59:21.875Z,7.13
2023-03-23T17:02:29.794Z,5.13
2023-03-23T17:05:33.687Z,5.20
2023-03-23T17:08:37.411Z,2.33
2023-03-23T17:11:42.465Z,3.27
2023-03-23T17:14:45.998Z,3.10
2023-03-23T17:17:49.688Z,3.50
2023-03-23T17:20:54.988Z,2.20
2023-03-23T17:23:58.591Z,4.60
2023-03-23T17:27:03.567Z,5.40
2023-03-23T17:30:10.815Z,3.33
2023-03-23T17:33:14.964Z,4.07
2023-03-23T17:36:19.403Z,3.07
2023-03-23T17:39:22.906Z,3.40
2023-03-23T17:42:28.104Z,2.33
2023-03-23T17:45:31.666Z,5.40
2023-03-23T17:48:36.249Z,5.07
2023-03-23T17:51:39.872Z,1.90
2023-03-23T17:54:43.488Z,3.43
2023-03-23T17:57:48.493Z,4.27
2023-03-23T18:00:52.148Z,3.07
2023-03-23T18:03:55.742Z,5.37
2023-03-23T18:07:00.425Z,1.83
2023-03-23T18:10:04.379Z,3.77
2023-03-23T18:13:10.428Z,5.03
2023-03-23T18:16:14.332Z,3.17
2023-03-23T18:19:18.101Z,7.53
2023-03-23T18:22:21.702Z,5.77
2023-03-23T18:25:25.730Z,3.37
2023-03-23T18:28:31.085Z,4.97
2023-03-23T18:31:40.002Z,5.23
2023-03-23T18:34:44.053Z,5.27
2023-03-23T18:37:48.292Z,5.63
2023-03-23T18:40:51.830Z,6.77
2023-03-23T18:43:57.867Z,4.40
2023-03-23T18:47:01.542Z,3.50
2023-03-23T18:50:06.126Z,5.33
2023-03-23T18:53:09.715Z,3.70
2023-03-23T18:56:16.243Z,5.53
2023-03-23T18:59:23.995Z,4.43
2023-03-23T19:02:27.753Z,8.60
2023-03-23T19:05:31.843Z,5.67
2023-03-23T19:08:35.974Z,5.77
2023-03-23T19:11:39.691Z,5.23
2023-03-23T19:14:44.778Z,5.00
2023-03-23T19:17:48.604Z,3.77
2023-03-23T19:24:00.752Z,8.57
2023-03-23T19:27:04.633Z,5.83
2023-03-23T19:30:10.822Z,4.30
2023-03-23T19:33:15.802Z,4.83
2023-03-23T19:36:20.301Z,2.87
2023-03-23T19:39:25.199Z,6.83
2023-03-23T19:42:28.947Z,5.10
2023-03-23T19:45:34.219Z,8.27
2023-03-23T19:48:39.687Z,5.63
2023-03-23T19:51:43.549Z,5.43
2023-03-23T19:54:47.177Z,7.30
2023-03-23T19:57:51.423Z,4.60
2023-03-23T20:00:57.117Z,7.20
2023-03-23T20:04:04.850Z,8.50
2023-03-23T20:07:09.963Z,7.53
2023-03-23T20:10:13.729Z,7.63
2023-03-23T20:13:17.970Z,9.73
2023-03-23T20:16:22.970Z,12.27
2023-03-23T20:19:26.711Z,9.17
2023-03-23T20:22:30.338Z,8.00
2023-03-23T20:25:33.969Z,7.23
2023-03-23T20:28:39.130Z,8.80
2023-03-23T20:31:45.275Z,9.57
2023-03-23T20:34:49.551Z,7.60
2023-03-23T20:37:53.708Z,8.17
2023-03-23T20:40:58.448Z,7.83
2023-03-23T20:44:02.315Z,9.00
2023-03-23T20:47:08.711Z,7.80
2023-03-23T20:50:13.653Z,13.27
2023-03-23T20:53:17.359Z,10.17
2023-03-23T20:56:24.531Z,11.40
2023-03-23T20:59:29.049Z,11.20
2023-03-23T21:02:34.297Z,11.13
2023-03-23T21:05:37.783Z,10.43
2023-03-23T21:08:42.211Z,9.27
2023-03-23T21:11:47.340Z,9.03
2023-03-23T21:14:51.187Z,9.97
2023-03-23T21:17:56.354Z,9.33
2023-03-23T21:21:00.718Z,9.63
2023-03-23T21:24:04.555Z,9.23
2023-03-23T21:27:08.239Z,10.73
2023-03-23T21:30:12.478Z,11.57
2023-03-23T21:33:17.393Z,11.33
2023-03-23T21:36:21.061Z,9.17
2023-03-23T21:39:24.992Z,10.27
2023-03-23T21:42:31.103Z,10.07
2023-03-23T21:45:34.835Z,10.83
2023-03-23T21:48:41.410Z,14.40
2023-03-23T21:51:45.055Z,11.70
2023-03-23T21:54:48.819Z,10.20
2023-03-23T21:57:52.657Z,11.73
2023-03-23T22:00:57.043Z,10.93
2023-03-23T22:04:02.014Z,10.80
2023-03-23T22:07:05.771Z,11.67
2023-03-23T22:10:11.098Z,14.70
2023-03-23T22:13:17.994Z,11.80
2023-03-23T22:16:22.975Z,10.73
2023-03-23T22:19:28.055Z,11.20
2023-03-23T22:22:31.656Z,11.17
2023-03-23T22:25:36.292Z,8.97
2023-03-23T22:28:40.849Z,11.73
2023-03-23T22:31:45.568Z,10.27
2023-03-23T22:34:52.150Z,10.40
2023-03-23T22:37:56.257Z,12.50
2023-03-23T22:41:02.489Z,11.43
2023-03-23T22:44:08.972Z,12.83
2023-03-23T22:47:12.972Z,8.47
2023-03-23T22:50:18.927Z,8.97
2023-03-23T22:53:23.464Z,7.50
2023-03-23T22:56:27.169Z,8.53
2023-03-23T22:59:30.749Z,8.23
2023-03-23T23:02:34.393Z,9.13
2023-03-23T23:05:43.833Z,7.73
2023-03-23T23:08:49.635Z,5.97
2023-03-23T23:11:53.153Z,8.57
2023-03-23T23:14:58.532Z,9.87
2023-03-23T23:18:02.854Z,8.47
2023-03-23T23:21:13.104Z,9.23
2023-03-23T23:24:17.097Z,9.07
2023-03-23T23:27:20.755Z,6.27
2023-03-23T23:30:24.379Z,6.67
2023-03-23T23:33:28.027Z,5.83
2023-03-23T23:36:33.776Z,6.13
2023-03-23T23:39:38.589Z,6.50
2023-03-23T23:42:43.034Z,5.00
2023-03-23T23:45:46.945Z,6.53
2023-03-23T23:48:50.572Z,6.20
2023-03-23T23:51:56.620Z,5.83
2023-03-23T23:55:00.401Z,7.77
2023-03-23T23:58:03.991Z,4.57
